Time;durP1;ratioP1;P1;durP2;ratioP2;P2;SDS_P1;SDS_P2;PMS_P1;PMS_P2;Temp;Humidity;BMP_temperature;BMP_pressure;BME280_temperature;BME280_humidity;BME280_pressure;Samples;Min_cycle;Max_cycle;Signal;HPM_P1;HPM_P2
2021/07/11 00:00:23;;;;;;;14.40;12.02;;;14.60;89.10;;;;;;5032150;28;20049;-86
2021/07/11 00:02:49;;;;;;;15.13;12.55;;;14.60;89.20;;;;;;5033033;28;20030;-92
2021/07/11 00:05:18;;;;;;;15.05;12.73;;;14.50;89.30;;;;;;5031783;28;20065;-88
2021/07/11 00:07:43;;;;;;;13.57;11.48;;;14.50;89.20;;;;;;5032969;28;20034;-82
2021/07/11 00:10:10;;;;;;;13.90;12.10;;;14.50;89.30;;;;;;5023629;28;20034;-88
2021/07/11 00:12:37;;;;;;;16.65;13.57;;;14.50;89.40;;;;;;5028466;28;20030;-84
2021/07/11 00:15:05;;;;;;;14.57;11.73;;;14.50;89.20;;;;;;5013368;28;20038;-80
2021/07/11 00:17:31;;;;;;;15.43;11.95;;;14.50;89.30;;;;;;5029089;28;20038;-90
2021/07/11 00:19:56;;;;;;;12.70;9.88;;;14.50;89.40;;;;;;5018817;28;20034;-85
2021/07/11 00:22:22;;;;;;;14.93;10.18;;;14.40;89.40;;;;;;5012615;28;20034;-85
2021/07/11 00:24:50;;;;;;;13.90;10.23;;;14.50;89.40;;;;;;5016796;28;20038;-85
2021/07/11 00:27:16;;;;;;;14.80;10.32;;;14.50;89.30;;;;;;5012473;28;20037;-83
2021/07/11 00:29:42;;;;;;;13.82;11.60;;;14.40;89.30;;;;;;5005672;28;20385;-83
2021/07/11 00:32:08;;;;;;;13.48;10.90;;;14.40;89.30;;;;;;5012612;28;20030;-86
2021/07/11 00:34:34;;;;;;;12.48;10.25;;;14.30;89.30;;;;;;5013206;28;20115;-84
2021/07/11 00:37:00;;;;;;;13.40;10.50;;;14.40;89.20;;;;;;5012806;28;20034;-87
2021/07/11 00:39:26;;;;;;;14.82;11.85;;;14.30;89.10;;;;;;5011747;28;20034;-85
2021/07/11 00:41:52;;;;;;;15.13;12.23;;;14.30;89.10;;;;;;5012689;28;20045;-93
2021/07/11 00:44:17;;;;;;;14.95;12.23;;;14.30;89.20;;;;;;5012581;28;20045;-84
2021/07/11 00:46:44;;;;;;;13.20;11.30;;;14.30;89.30;;;;;;5013293;28;20033;-83
2021/07/11 00:49:10;;;;;;;14.95;10.23;;;14.20;89.30;;;;;;5011301;28;20086;-88
2021/07/11 00:51:36;;;;;;;12.63;10.23;;;14.20;88.90;;;;;;5013322;28;20041;-87
2021/07/11 00:54:02;;;;;;;14.38;10.88;;;14.10;88.90;;;;;;5018589;28;20041;-88
2021/07/11 00:56:28;;;;;;;13.50;11.63;;;14.10;89.00;;;;;;5012434;28;20023;-87
2021/07/11 00:58:55;;;;;;;13.90;11.52;;;14.10;89.10;;;;;;5012280;28;20093;-88
2021/07/11 01:01:34;;;;;;;13.82;11.30;;;14.10;89.30;;;;;;5011535;28;20057;-82
2021/07/11 01:04:02;;;;;;;15.20;11.75;;;14.10;89.20;;;;;;5005067;28;20061;-86
2021/07/11 01:06:29;;;;;;;15.13;12.00;;;14.00;89.10;;;;;;5011941;28;20026;-83
2021/07/11 01:09:06;;;;;;;16.05;12.82;;;14.00;89.10;;;;;;5013053;28;20036;-86
2021/07/11 01:11:37;;;;;;;13.98;12.45;;;14.00;89.30;;;;;;5011684;28;20030;-83
2021/07/11 01:14:05;;;;;;;17.05;12.40;;;14.00;89.50;;;;;;5003978;28;20077;-82
2021/07/11 01:16:33;;;;;;;16.45;13.45;;;14.00;89.60;;;;;;5005573;28;20038;-86
2021/07/11 01:19:09;;;;;;;16.35;13.65;;;14.00;89.60;;;;;;5013371;28;20037;-83
2021/07/11 01:21:46;;;;;;;16.17;12.95;;;13.90;89.80;;;;;;5024663;28;20030;-87
2021/07/11 01:24:20;;;;;;;16.83;12.77;;;13.90;89.90;;;;;;5012058;28;20027;-81
2021/07/11 01:26:48;;;;;;;16.95;13.05;;;14.00;89.90;;;;;;5012112;28;20094;-87
2021/07/11 01:29:14;;;;;;;17.20;13.82;;;14.00;89.80;;;;;;5012885;28;20034;-83
2021/07/11 01:31:41;;;;;;;15.75;13.52;;;13.90;89.80;;;;;;5013162;28;20041;-83
2021/07/11 01:34:07;;;;;;;18.27;13.65;;;13.90;89.90;;;;;;5011381;28;20042;-83
2021/07/11 01:36:33;;;;;;;15.57;13.45;;;14.00;89.90;;;;;;5011903;28;20046;-84
2021/07/11 01:39:00;;;;;;;16.08;12.57;;;14.00;90.00;;;;;;5011953;28;20026;-89
2021/07/11 01:41:27;;;;;;;17.65;13.35;;;13.90;90.00;;;;;;5012335;28;20106;-89
2021/07/11 01:43:55;;;;;;;16.45;12.88;;;13.90;90.00;;;;;;5012044;28;20042;-91
2021/07/11 01:46:24;;;;;;;15.48;12.30;;;13.80;90.00;;;;;;5027147;28;20243;-87
2021/07/11 01:48:51;;;;;;;15.55;12.73;;;13.80;90.00;;;;;;5013086;28;20026;-84
2021/07/11 01:51:18;;;;;;;16.05;13.70;;;13.80;89.90;;;;;;5011966;28;20049;-83
2021/07/11 01:53:47;;;;;;;17.50;15.43;;;13.80;89.90;;;;;;5014235;28;20042;-85
2021/07/11 01:56:13;;;;;;;16.45;13.95;;;13.80;89.90;;;;;;5010214;28;20065;-84
2021/07/11 01:58:41;;;;;;;17.48;14.23;;;13.80;90.00;;;;;;5012632;28;20042;-86
2021/07/11 02:01:10;;;;;;;16.02;14.18;;;13.80;90.00;;;;;;5011090;28;20030;-86
2021/07/11 02:03:36;;;;;;;18.55;14.82;;;13.80;89.90;;;;;;5013011;28;20030;-90
2021/07/11 02:06:03;;;;;;;17.75;14.07;;;13.70;89.90;;;;;;5012070;28;20093;-82
2021/07/11 02:08:29;;;;;;;15.70;13.10;;;13.70;89.90;;;;;;5011586;28;20121;-89
2021/07/11 02:10:56;;;;;;;17.73;13.38;;;13.70;89.90;;;;;;5010089;28;20039;-85
2021/07/11 02:13:30;;;;;;;17.80;14.52;;;13.70;89.80;;;;;;5012139;28;20098;-84
2021/07/11 02:16:05;;;;;;;18.60;14.65;;;13.70;89.90;;;;;;5014191;28;20081;-85
2021/07/11 02:18:31;;;;;;;18.17;13.48;;;13.60;89.80;;;;;;5015204;28;20034;-84
2021/07/11 02:20:58;;;;;;;17.15;13.23;;;13.60;89.60;;;;;;5014219;28;20050;-88
2021/07/11 02:23:25;;;;;;;18.50;14.57;;;13.60;89.60;;;;;;5020326;28;20049;-88
2021/07/11 02:25:52;;;;;;;16.98;14.63;;;13.60;89.70;;;;;;5015947;28;20030;-87
2021/07/11 02:28:20;;;;;;;19.35;15.05;;;13.50;89.80;;;;;;5016182;28;20658;-87
2021/07/11 02:30:55;;;;;;;21.50;16.67;;;13.50;90.00;;;;;;5016501;28;20038;-83
2021/07/11 02:33:27;;;;;;;17.73;14.77;;;13.50;90.10;;;;;;5014803;28;20053;-90
2021/07/11 02:35:55;;;;;;;17.60;14.45;;;13.40;90.00;;;;;;5016656;28;20041;-86
2021/07/11 02:38:21;;;;;;;20.42;15.48;;;13.40;90.20;;;;;;5014860;28;23094;-87
2021/07/11 02:40:47;;;;;;;17.75;15.30;;;13.40;90.20;;;;;;5013102;28;20030;-83
2021/07/11 02:43:15;;;;;;;18.73;15.25;;;13.40;90.20;;;;;;5014417;28;20038;-85
2021/07/11 02:45:43;;;;;;;18.15;15.15;;;13.40;90.20;;;;;;5013016;28;20035;-83
2021/07/11 02:48:12;;;;;;;18.38;15.50;;;13.40;90.20;;;;;;5014966;28;20102;-83
2021/07/11 02:50:43;;;;;;;19.60;15.38;;;13.40;90.20;;;;;;5015481;28;20026;-88
2021/07/11 02:53:09;;;;;;;21.08;17.85;;;13.40;90.30;;;;;;5018904;28;20097;-82
2021/07/11 02:55:37;;;;;;;21.58;18.35;;;13.50;90.30;;;;;;5017480;28;20038;-84
2021/07/11 02:58:10;;;;;;;26.92;19.83;;;13.40;90.40;;;;;;5015104;28;20026;-81
2021/07/11 03:00:36;;;;;;;23.60;19.88;;;13.50;90.50;;;;;;5015052;28;20034;-83
2021/07/11 03:03:04;;;;;;;26.02;20.10;;;13.50;90.60;;;;;;5013685;28;20037;-83
2021/07/11 03:05:30;;;;;;;27.40;21.95;;;13.50;90.70;;;;;;5015837;28;20030;-83
2021/07/11 03:07:55;;;;;;;27.60;21.13;;;13.50;90.70;;;;;;5015308;28;20038;-83
2021/07/11 03:10:21;;;;;;;27.35;22.45;;;13.50;90.80;;;;;;5014150;28;20045;-87
2021/07/11 03:12:51;;;;;;;26.48;21.50;;;13.50;90.90;;;;;;5014522;28;20045;-79
2021/07/11 03:15:21;;;;;;;29.95;22.77;;;13.50;90.90;;;;;;5014816;28;20045;-84
2021/07/11 03:17:48;;;;;;;26.63;20.20;;;13.50;90.90;;;;;;5015476;28;20037;-80
2021/07/11 03:20:14;;;;;;;29.30;21.65;;;13.40;90.90;;;;;;5014899;28;20078;-80
2021/07/11 03:22:41;;;;;;;26.85;21.40;;;13.40;91.00;;;;;;5014397;28;20062;-83
2021/07/11 03:25:10;;;;;;;26.27;20.85;;;13.40;91.10;;;;;;5013713;28;20034;-80
2021/07/11 03:27:37;;;;;;;30.00;20.98;;;13.30;91.00;;;;;;5014874;28;20034;-84
2021/07/11 03:30:12;;;;;;;31.25;21.70;;;13.30;91.10;;;;;;5013975;28;20042;-82
2021/07/11 03:32:48;;;;;;;28.48;22.45;;;13.30;91.10;;;;;;5010022;28;20094;-88
2021/07/11 03:35:16;;;;;;;35.95;23.50;;;13.30;91.10;;;;;;5005314;28;20058;-83
2021/07/11 03:37:44;;;;;;;29.92;21.88;;;13.30;91.20;;;;;;5014216;28;20402;-83
2021/07/11 03:40:15;;;;;;;29.48;22.30;;;13.30;91.20;;;;;;5013287;28;20033;-82
2021/07/11 03:42:42;;;;;;;28.98;21.10;;;13.30;91.20;;;;;;5014165;28;20030;-88
2021/07/11 03:45:10;;;;;;;28.65;21.40;;;13.30;91.20;;;;;;5013933;28;20030;-88
2021/07/11 03:47:40;;;;;;;28.85;20.70;;;13.40;91.20;;;;;;5009363;28;20058;-85
2021/07/11 03:50:07;;;;;;;30.33;21.45;;;13.30;91.00;;;;;;5013268;28;20030;-82
2021/07/11 03:52:40;;;;;;;26.98;19.17;;;13.30;91.00;;;;;;5013937;28;20057;-83
2021/07/11 03:55:08;;;;;;;26.52;19.60;;;13.30;91.10;;;;;;5015997;28;20061;-82
2021/07/11 03:57:35;;;;;;;27.13;18.77;;;13.20;90.90;;;;;;5014411;28;20057;-84
2021/07/11 04:00:01;;;;;;;25.38;18.13;;;13.20;91.00;;;;;;5014141;28;20034;-84
2021/07/11 04:02:28;;;;;;;25.60;19.23;;;13.30;91.00;;;;;;5013334;28;20034;-82
2021/07/11 04:04:57;;;;;;;27.85;20.10;;;13.20;91.00;;;;;;5014167;28;20357;-86
2021/07/11 04:07:25;;;;;;;26.85;19.85;;;13.30;91.00;;;;;;5015699;28;20098;-87
2021/07/11 04:09:54;;;;;;;27.95;20.92;;;13.20;91.00;;;;;;5019932;28;20037;-80
2021/07/11 04:12:20;;;;;;;28.13;19.80;;;13.30;90.90;;;;;;5012795;28;20077;-86
2021/07/11 04:14:46;;;;;;;28.58;19.95;;;13.30;90.90;;;;;;5014347;28;20046;-81
2021/07/11 04:17:12;;;;;;;26.00;19.27;;;13.30;90.80;;;;;;5013457;28;20038;-85
2021/07/11 04:19:42;;;;;;;28.73;20.88;;;13.30;90.70;;;;;;5019093;28;20081;-82
2021/07/11 04:22:12;;;;;;;29.85;20.83;;;13.20;90.50;;;;;;5013400;28;20030;-87
2021/07/11 04:24:39;;;;;;;28.60;20.23;;;13.20;90.50;;;;;;5017596;28;20054;-84
2021/07/11 04:27:05;;;;;;;24.65;19.75;;;13.30;90.60;;;;;;5014014;28;20461;-89
2021/07/11 04:29:33;;;;;;;32.63;22.38;;;13.50;90.50;;;;;;5005513;28;20084;-85
2021/07/11 04:32:03;;;;;;;31.55;22.20;;;13.60;90.30;;;;;;5014700;28;20036;-81
2021/07/11 04:34:34;;;;;;;29.27;21.17;;;13.60;90.20;;;;;;5011667;28;20034;-82
2021/07/11 04:37:02;;;;;;;29.77;21.75;;;13.70;90.20;;;;;;5008411;28;20030;-86
2021/07/11 04:39:28;;;;;;;40.50;25.77;;;13.80;90.10;;;;;;5012391;28;20026;-82
2021/07/11 04:41:55;;;;;;;35.58;23.75;;;13.80;89.80;;;;;;5014152;28;20034;-85
2021/07/11 04:44:22;;;;;;;44.72;29.77;;;13.70;90.00;;;;;;5013821;28;20039;-82
2021/07/11 04:46:48;;;;;;;46.78;30.65;;;13.70;90.10;;;;;;5014341;28;20026;-84
2021/07/11 04:49:14;;;;;;;93.50;35.78;;;13.70;90.30;;;;;;5012466;28;20109;-87
2021/07/11 04:51:40;;;;;;;57.67;35.33;;;13.70;90.10;;;;;;5013083;28;20031;-86
2021/07/11 04:54:06;;;;;;;67.65;37.00;;;13.70;90.40;;;;;;5020146;28;20110;-90
2021/07/11 04:56:32;;;;;;;52.72;35.67;;;13.70;90.50;;;;;;5013709;28;20149;-83
2021/07/11 04:58:58;;;;;;;81.10;32.90;;;13.70;90.50;;;;;;5021733;28;20033;-82
2021/07/11 05:01:25;;;;;;;44.10;31.00;;;13.80;90.40;;;;;;5012921;28;20031;-84
2021/07/11 05:03:51;;;;;;;56.88;30.40;;;13.70;90.20;;;;;;5016812;28;20034;-81
2021/07/11 05:06:17;;;;;;;74.03;33.42;;;13.60;90.30;;;;;;5013599;28;20042;-85
2021/07/11 05:08:43;;;;;;;54.28;34.08;;;13.60;90.40;;;;;;5012888;28;20023;-86
2021/07/11 05:11:08;;;;;;;55.90;33.53;;;13.70;90.60;;;;;;5013094;28;20053;-90
2021/07/11 05:13:34;;;;;;;48.42;32.78;;;13.70;90.50;;;;;;5013623;28;20034;-85
2021/07/11 05:16:00;;;;;;;55.92;32.50;;;13.80;90.60;;;;;;5012656;28;20046;-83
2021/07/11 05:18:26;;;;;;;60.65;33.22;;;13.80;90.50;;;;;;5013386;28;20030;-83
2021/07/11 05:20:51;;;;;;;44.13;30.92;;;13.80;90.60;;;;;;5012824;28;20022;-87
2021/07/11 05:23:17;;;;;;;65.10;32.63;;;13.90;90.50;;;;;;5012928;28;20026;-90
2021/07/11 05:25:43;;;;;;;45.65;30.08;;;13.80;90.40;;;;;;5012787;28;20030;-82
2021/07/11 05:28:08;;;;;;;63.90;31.63;;;13.80;90.40;;;;;;5012240;28;20030;-90
2021/07/11 05:30:34;;;;;;;55.38;30.45;;;13.90;90.40;;;;;;5013225;28;20065;-84
2021/07/11 05:33:00;;;;;;;59.95;31.13;;;14.00;90.70;;;;;;5013229;28;20115;-86
2021/07/11 05:35:26;;;;;;;45.13;28.35;;;14.00;90.50;;;;;;5013140;28;20070;-88
2021/07/11 05:37:52;;;;;;;69.55;30.35;;;14.00;90.60;;;;;;5013293;28;20033;-89
2021/07/11 05:40:17;;;;;;;42.65;27.48;;;14.10;90.10;;;;;;5012438;28;20047;-83
2021/07/11 05:42:44;;;;;;;69.07;29.42;;;14.10;90.20;;;;;;5014277;28;20063;-84
2021/07/11 05:45:11;;;;;;;48.58;30.88;;;14.20;90.40;;;;;;5013103;28;20073;-92
2021/07/11 05:47:38;;;;;;;49.40;29.33;;;14.30;90.50;;;;;;5006262;28;20031;-88
2021/07/11 05:50:06;;;;;;;45.42;27.77;;;14.30;90.30;;;;;;5015214;28;20045;-85
2021/07/11 05:52:31;;;;;;;52.53;30.83;;;14.50;90.20;;;;;;5017089;28;20026;-84
2021/07/11 05:54:57;;;;;;;43.25;27.05;;;14.60;90.10;;;;;;5018911;28;20052;-86
2021/07/11 05:57:24;;;;;;;50.53;30.10;;;14.70;89.80;;;;;;5016081;28;20049;-85
2021/07/11 05:59:50;;;;;;;54.85;32.30;;;14.90;89.30;;;;;;5033092;28;20041;-88
2021/07/11 06:02:16;;;;;;;61.53;33.22;;;15.00;88.90;;;;;;5032712;28;20045;-88
2021/07/11 06:04:43;;;;;;;58.50;33.45;;;15.10;88.40;;;;;;5016846;28;20045;-83
2021/07/11 06:07:09;;;;;;;48.83;30.75;;;15.10;88.20;;;;;;5016231;28;20038;-93
2021/07/11 06:09:35;;;;;;;51.72;29.83;;;15.10;88.10;;;;;;5016681;28;20041;-84
2021/07/11 06:12:01;;;;;;;49.33;28.55;;;15.30;88.10;;;;;;5017752;28;20056;-85
2021/07/11 06:14:27;;;;;;;43.50;26.83;;;15.20;87.00;;;;;;5016533;28;20038;-89
2021/07/11 06:16:53;;;;;;;44.97;26.17;;;15.40;87.00;;;;;;5017322;28;20038;-88
2021/07/11 06:19:19;;;;;;;40.50;26.95;;;15.50;86.60;;;;;;5021901;28;20026;-87
2021/07/11 06:21:45;;;;;;;38.13;25.35;;;15.70;85.80;;;;;;5016773;28;20023;-82
2021/07/11 06:24:11;;;;;;;41.35;26.52;;;15.80;85.50;;;;;;5020198;28;20076;-94
2021/07/11 06:26:36;;;;;;;46.42;31.25;;;16.00;85.40;;;;;;5016025;28;20045;-90
2021/07/11 06:29:02;;;;;;;43.95;29.67;;;16.10;84.50;;;;;;5016112;28;20077;-82
2021/07/11 06:31:30;;;;;;;45.03;28.92;;;16.30;84.30;;;;;;5016498;28;20050;-86
2021/07/11 06:33:55;;;;;;;41.60;27.67;;;16.40;83.40;;;;;;5017344;28;20034;-89
2021/07/11 06:36:21;;;;;;;39.88;26.58;;;16.40;82.90;;;;;;5015741;28;20042;-89
2021/07/11 06:38:47;;;;;;;36.00;24.58;;;16.40;84.00;;;;;;5017609;28;20031;-82
2021/07/11 06:41:12;;;;;;;40.67;26.70;;;16.30;83.50;;;;;;5016422;28;20023;-91
2021/07/11 06:43:38;;;;;;;38.40;25.52;;;16.20;83.80;;;;;;5016222;28;20031;-89
2021/07/11 06:46:04;;;;;;;37.35;26.08;;;16.10;84.30;;;;;;5016853;28;20054;-82
2021/07/11 06:48:31;;;;;;;36.90;24.77;;;16.10;84.50;;;;;;5016622;28;20151;-92
2021/07/11 06:50:57;;;;;;;35.05;25.40;;;15.80;84.80;;;;;;5016435;28;20057;-88
2021/07/11 06:53:23;;;;;;;34.38;25.23;;;15.80;84.20;;;;;;5015850;28;20105;-91
2021/07/11 06:55:48;;;;;;;32.03;23.05;;;15.90;84.70;;;;;;5015896;28;20050;-86
2021/07/11 06:58:14;;;;;;;36.70;25.50;;;16.10;85.00;;;;;;5015639;28;20030;-90
2021/07/11 07:00:40;;;;;;;36.17;24.63;;;16.10;83.80;;;;;;5015454;28;20053;-85
2021/07/11 07:03:05;;;;;;;35.45;24.48;;;16.20;83.20;;;;;;5016236;28;20109;-93
2021/07/11 07:05:31;;;;;;;33.00;24.27;;;16.50;83.00;;;;;;5015615;28;20030;-87
2021/07/11 07:07:57;;;;;;;34.42;24.52;;;16.60;82.80;;;;;;5017089;28;20026;-84
2021/07/11 07:10:23;;;;;;;33.00;23.77;;;17.00;82.10;;;;;;5015845;28;20030;-84
2021/07/11 07:12:49;;;;;;;32.08;23.35;;;17.20;82.10;;;;;;5016568;28;20033;-90
2021/07/11 07:15:15;;;;;;;32.10;23.48;;;17.30;80.50;;;;;;5014693;28;20056;-88
2021/07/11 07:17:42;;;;;;;30.33;21.40;;;17.50;79.60;;;;;;5015493;28;20054;-89
2021/07/11 07:20:09;;;;;;;29.92;21.95;;;17.90;79.70;;;;;;5015226;28;20032;-88
2021/07/11 07:22:36;;;;;;;29.60;22.15;;;18.20;78.20;;;;;;5016099;28;20033;-89
2021/07/11 07:25:06;;;;;;;30.13;21.92;;;18.60;77.20;;;;;;5021247;28;20060;-82
2021/07/11 07:27:32;;;;;;;25.90;20.30;;;18.80;76.20;;;;;;5023672;28;20027;-86
2021/07/11 07:29:58;;;;;;;27.15;20.45;;;19.10;74.50;;;;;;5016061;28;20038;-86
2021/07/11 07:32:23;;;;;;;27.88;21.02;;;19.20;73.50;;;;;;5016103;28;20015;-85
2021/07/11 07:34:49;;;;;;;27.75;21.27;;;19.40;73.20;;;;;;5007713;28;20058;-89
2021/07/11 07:37:15;;;;;;;27.30;19.48;;;19.30;73.80;;;;;;5017369;28;20035;-92
2021/07/11 07:39:40;;;;;;;26.55;19.75;;;19.60;73.80;;;;;;5008523;28;20041;-85
2021/07/11 07:42:06;;;;;;;27.13;20.38;;;19.70;71.70;;;;;;5015489;28;20042;-88
2021/07/11 07:44:33;;;;;;;25.33;18.67;;;19.90;70.90;;;;;;5016144;28;20030;-82
2021/07/11 07:46:59;;;;;;;25.73;19.70;;;20.10;70.10;;;;;;5015782;28;20093;-88
2021/07/11 07:49:25;;;;;;;23.77;18.90;;;20.20;70.40;;;;;;5008410;28;20015;-87
2021/07/11 07:51:50;;;;;;;23.40;18.73;;;20.10;70.10;;;;;;5016245;28;20034;-88
2021/07/11 07:54:16;;;;;;;20.33;16.27;;;19.80;71.20;;;;;;5022746;28;20042;-92
2021/07/11 07:56:42;;;;;;;21.27;17.25;;;19.50;71.20;;;;;;5015513;28;20026;-89
2021/07/11 07:59:08;;;;;;;22.88;18.13;;;19.40;72.60;;;;;;5014204;28;20022;-88
2021/07/11 08:01:34;;;;;;;20.10;15.73;;;19.10;72.60;;;;;;5016089;28;20037;-87
2021/07/11 08:04:00;;;;;;;21.98;16.40;;;18.80;72.60;;;;;;5015647;28;20061;-86
2021/07/11 08:06:25;;;;;;;23.02;17.38;;;18.60;72.30;;;;;;5015555;28;20053;-83
2021/07/11 08:08:51;;;;;;;22.15;17.65;;;18.60;73.10;;;;;;5015879;28;20034;-88
2021/07/11 08:11:17;;;;;;;23.13;17.48;;;18.60;74.90;;;;;;5032907;28;20037;-90
2021/07/11 08:13:43;;;;;;;23.95;18.58;;;18.50;75.10;;;;;;5035816;22;20046;-73
2021/07/11 08:16:09;;;;;;;20.20;16.42;;;18.50;74.70;;;;;;5028213;28;20136;-72
2021/07/11 08:18:35;;;;;;;21.23;17.10;;;18.40;73.90;;;;;;5028468;28;20501;-74
2021/07/11 08:21:01;;;;;;;19.63;16.00;;;18.30;74.60;;;;;;5011293;28;20141;-76
2021/07/11 08:23:27;;;;;;;21.00;15.25;;;18.30;75.00;;;;;;5009060;28;20121;-72
2021/07/11 08:25:52;;;;;;;20.20;15.05;;;18.30;74.20;;;;;;5010407;28;20036;-72
2021/07/11 08:28:18;;;;;;;21.55;16.85;;;18.30;74.90;;;;;;5009810;28;20033;-73
2021/07/11 08:30:44;;;;;;;19.63;14.55;;;18.40;76.30;;;;;;5009386;28;20033;-72
2021/07/11 08:33:10;;;;;;;17.50;13.75;;;18.50;74.80;;;;;;5024673;28;20080;-72
2021/07/11 08:35:35;;;;;;;17.98;13.18;;;18.60;74.60;;;;;;5021931;28;20050;-73
2021/07/11 08:38:01;;;;;;;18.85;14.05;;;18.80;73.30;;;;;;5029100;28;20037;-73
2021/07/11 08:40:27;;;;;;;17.23;13.45;;;18.90;72.30;;;;;;5016591;28;20050;-72
2021/07/11 08:42:54;;;;;;;18.80;14.82;;;19.10;71.50;;;;;;5022044;28;20039;-73
2021/07/11 08:45:20;;;;;;;18.50;14.30;;;19.10;71.40;;;;;;5021202;28;20041;-73
2021/07/11 08:47:46;;;;;;;20.92;15.77;;;19.30;71.70;;;;;;5015420;28;20045;-74
2021/07/11 08:50:14;;;;;;;19.38;14.73;;;19.40;70.60;;;;;;5016284;28;20124;-76
2021/07/11 08:52:40;;;;;;;17.90;14.48;;;19.50;71.40;;;;;;5018602;28;20080;-74
2021/07/11 08:55:14;;;;;;;18.83;13.27;;;19.50;70.90;;;;;;5019434;28;20125;-74
2021/07/11 08:57:40;;;;;;;20.50;15.55;;;19.70;70.10;;;;;;5021738;28;20104;-77
2021/07/11 09:00:07;;;;;;;24.58;17.40;;;19.70;70.30;;;;;;5023179;28;20440;-71
2021/07/11 09:02:32;;;;;;;21.58;15.32;;;19.70;69.80;;;;;;5012531;28;20682;-74
2021/07/11 09:04:59;;;;;;;19.58;14.70;;;19.60;69.80;;;;;;5020167;28;20441;-74
2021/07/11 09:07:25;;;;;;;20.95;15.15;;;19.60;69.90;;;;;;5016568;28;20444;-71
2021/07/11 09:09:58;;;;;;;21.00;15.30;;;19.50;71.00;;;;;;5025082;28;20049;-71
2021/07/11 09:12:25;;;;;;;19.77;14.80;;;19.50;70.80;;;;;;5020139;28;20036;-71
2021/07/11 09:14:52;;;;;;;23.17;16.13;;;19.60;70.30;;;;;;5029967;28;20038;-74
2021/07/11 09:17:18;;;;;;;20.63;16.05;;;19.60;70.20;;;;;;5028146;28;20095;-71
2021/07/11 09:19:48;;;;;;;20.70;14.73;;;19.70;71.40;;;;;;5029701;28;20041;-74
2021/07/11 09:22:15;;;;;;;17.80;13.48;;;19.70;70.30;;;;;;5011022;28;20474;-73
2021/07/11 09:24:58;;;;;;;17.40;13.88;;;19.80;70.00;;;;;;5028866;28;20033;-72
2021/07/11 09:27:32;;;;;;;17.33;12.40;;;19.80;68.90;;;;;;5016380;28;20458;-74
2021/07/11 09:30:06;;;;;;;17.80;13.43;;;20.10;68.90;;;;;;5007856;28;20042;-71
2021/07/11 09:32:33;;;;;;;;;;;20.20;68.10;;;;;;5012758;28;20436;-71
2021/07/11 09:35:17;;;;;;;18.55;13.07;;;20.30;65.80;;;;;;5028923;28;19975;-71
2021/07/11 09:38:03;;;;;;;16.65;12.88;;;20.60;65.10;;;;;;5016638;28;20047;-72
2021/07/11 09:40:30;;;;;;;18.17;13.85;;;20.70;64.30;;;;;;5028207;28;20033;-72
2021/07/11 09:42:57;;;;;;;17.05;12.40;;;20.80;65.90;;;;;;5014012;28;20034;-73
2021/07/11 09:45:28;;;;;;;16.45;12.57;;;20.90;64.70;;;;;;5008743;28;20084;-73
2021/07/11 09:48:04;;;;;;;15.82;12.00;;;21.00;65.10;;;;;;5009225;28;20044;-73
2021/07/11 09:50:30;;;;;;;16.48;12.73;;;21.00;64.20;;;;;;5015740;28;20106;-73
2021/07/11 09:52:58;;;;;;;15.73;12.10;;;21.10;63.10;;;;;;5024925;28;20108;-72
2021/07/11 09:55:26;;;;;;;15.35;12.52;;;21.30;63.40;;;;;;5007844;28;20038;-72
2021/07/11 09:57:52;;;;;;;13.93;10.63;;;21.80;62.20;;;;;;5009680;28;20056;-72
2021/07/11 10:00:22;;;;;;;15.30;10.57;;;21.90;60.20;;;;;;5008744;28;20074;-72
2021/07/11 10:02:50;;;;;;;13.55;10.13;;;21.90;59.00;;;;;;5009216;28;20096;-73
2021/07/11 10:05:17;;;;;;;14.73;10.68;;;21.70;60.80;;;;;;5007502;28;20042;-73
2021/07/11 10:07:43;;;;;;;15.48;12.07;;;21.40;61.10;;;;;;5007708;28;20367;-72
2021/07/11 10:10:11;;;;;;;17.40;13.13;;;21.30;62.60;;;;;;5007107;28;20046;-73
2021/07/11 10:12:38;;;;;;;14.00;11.10;;;21.20;63.00;;;;;;5023838;28;20078;-72
2021/07/11 10:15:12;;;;;;;15.15;11.88;;;21.10;62.40;;;;;;5007692;28;20038;-73
2021/07/11 10:17:42;;;;;;;;;;;21.10;63.20;;;;;;5009538;28;20045;-72
2021/07/11 10:20:09;;;;;;;16.25;12.90;;;21.10;63.80;;;;;;5023984;28;19921;-72
2021/07/11 10:22:45;;;;;;;15.85;11.70;;;21.10;64.70;;;;;;5012351;28;20038;-73
2021/07/11 10:25:22;;;;;;;14.55;11.43;;;20.90;64.80;;;;;;5025232;28;20033;-72
2021/07/11 10:28:02;;;;;;;15.13;12.05;;;20.90;65.50;;;;;;5021749;28;20539;-72
2021/07/11 10:30:31;;;;;;;15.75;11.15;;;20.80;64.30;;;;;;5027229;28;20037;-72
2021/07/11 10:33:15;;;;;;;17.95;12.45;;;20.90;62.90;;;;;;5012154;28;20071;-72
2021/07/11 10:35:52;;;;;;;13.60;10.15;;;20.80;63.20;;;;;;5028283;28;20064;-72
2021/07/11 10:38:49;;;;;;;11.68;8.82;;;20.80;63.90;;;;;;5029909;28;20053;-73
2021/07/11 10:41:18;;;;;;;13.13;9.88;;;20.80;64.30;;;;;;5018649;28;20417;-72
2021/07/11 10:44:05;;;;;;;12.98;9.00;;;20.90;64.50;;;;;;5029735;28;20037;-73
2021/07/11 10:46:33;;;;;;;11.25;8.85;;;20.80;63.50;;;;;;5027026;28;20473;-72
2021/07/11 10:49:15;;;;;;;14.65;9.32;;;20.80;63.90;;;;;;5028391;28;20095;-72
2021/07/11 10:51:43;;;;;;;15.07;11.05;;;20.80;65.50;;;;;;5032590;28;20038;-75
2021/07/11 10:54:30;;;;;;;14.07;10.57;;;20.70;64.40;;;;;;5028103;28;20485;-73
2021/07/11 10:57:07;;;;;;;15.15;10.43;;;20.60;64.80;;;;;;5009447;28;20042;-72
2021/07/11 10:59:38;;;;;;;16.25;11.27;;;20.60;66.50;;;;;;5019876;28;20030;-72
2021/07/11 11:02:16;;;;;;;15.50;11.02;;;20.60;65.10;;;;;;5012062;28;20034;-72
2021/07/11 11:04:44;;;;;;;13.55;10.77;;;20.70;64.60;;;;;;5011573;28;20572;-72
2021/07/11 11:07:14;;;;;;;14.15;11.48;;;20.80;65.40;;;;;;5027974;28;20052;-72
2021/07/11 11:09:46;;;;;;;16.02;11.13;;;20.90;63.80;;;;;;5013885;28;20030;-74
2021/07/11 11:12:25;;;;;;;14.43;10.95;;;20.90;63.60;;;;;;5005736;28;20484;-72
2021/07/11 11:14:59;;;;;;;17.52;12.00;;;20.60;65.90;;;;;;5030814;28;20088;-72
2021/07/11 11:17:36;;;;;;;15.75;11.93;;;20.60;65.30;;;;;;5022354;28;20397;-72
2021/07/11 11:20:06;;;;;;;17.38;13.13;;;20.30;66.40;;;;;;5023828;28;20176;-73
2021/07/11 11:22:32;;;;;;;16.65;12.77;;;20.30;66.30;;;;;;5029943;28;20056;-73
2021/07/11 11:24:58;;;;;;;17.38;13.23;;;20.40;66.90;;;;;;5029174;28;20370;-73
2021/07/11 11:27:39;;;;;;;17.20;14.50;;;20.60;66.20;;;;;;5029480;28;20112;-72
2021/07/11 11:30:18;;;;;;;17.08;12.57;;;20.70;66.10;;;;;;5003880;28;20038;-75
2021/07/11 11:32:59;;;;;;;16.75;12.18;;;21.10;64.70;;;;;;4994623;28;20286;-73
2021/07/11 11:35:30;;;;;;;14.98;10.98;;;21.60;62.80;;;;;;5010987;28;20434;-72
2021/07/11 11:38:04;;;;;;;13.27;9.00;;;21.80;61.80;;;;;;5006687;28;20038;-73
2021/07/11 11:40:34;;;;;;;11.50;8.75;;;22.00;59.60;;;;;;5018188;28;20030;-73
2021/07/11 11:43:04;;;;;;;13.65;10.15;;;22.50;60.80;;;;;;5011364;28;20034;-72
2021/07/11 11:45:35;;;;;;;13.13;9.70;;;22.90;58.80;;;;;;5013264;28;20488;-73
2021/07/11 11:48:07;;;;;;;11.90;8.68;;;23.10;56.70;;;;;;5021828;28;20033;-74
2021/07/11 11:50:35;;;;;;;13.35;9.77;;;23.50;56.40;;;;;;5028496;28;20045;-73
2021/07/11 11:53:15;;;;;;;12.57;10.25;;;23.50;57.10;;;;;;5031897;28;20108;-74
2021/07/11 11:55:54;;;;;;;14.02;9.07;;;23.30;56.60;;;;;;5021865;28;20485;-73
2021/07/11 11:58:28;;;;;;;12.30;8.85;;;23.00;57.70;;;;;;5010682;28;20092;-76
2021/07/11 12:01:05;;;;;;;11.30;8.15;;;22.80;59.10;;;;;;5008833;28;20088;-73
2021/07/11 12:03:36;;;;;;;13.95;9.20;;;22.90;57.60;;;;;;5029956;28;20111;-73
2021/07/11 12:06:04;;;;;;;10.95;8.25;;;22.60;59.70;;;;;;5029971;28;20099;-73
2021/07/11 12:08:39;;;;;;;11.98;8.18;;;22.60;59.60;;;;;;5028625;28;20029;-73
2021/07/11 12:11:06;;;;;;;11.57;8.10;;;22.80;58.70;;;;;;5020737;28;20037;-73
2021/07/11 12:13:32;;;;;;;10.80;7.50;;;23.00;57.10;;;;;;5017300;28;20064;-73
2021/07/11 12:16:13;;;;;;;12.98;7.55;;;23.60;57.40;;;;;;5009020;28;20084;-72
2021/07/11 12:18:49;;;;;;;11.00;7.95;;;24.00;54.50;;;;;;5009808;28;20109;-73
2021/07/11 12:21:23;;;;;;;9.77;6.70;;;23.40;55.90;;;;;;5008304;28;20088;-72
2021/07/11 12:24:18;;;;;;;10.00;6.63;;;23.30;55.60;;;;;;5008441;28;20462;-73
2021/07/11 12:26:46;;;;;;;9.50;6.65;;;23.60;56.40;;;;;;5009073;28;20109;-72
2021/07/11 12:29:16;;;;;;;10.60;6.57;;;23.80;55.90;;;;;;5009631;28;20073;-72
2021/07/11 12:31:42;;;;;;;12.15;6.82;;;24.10;55.70;;;;;;5023590;28;20037;-72
2021/07/11 12:34:12;;;;;;;10.88;7.50;;;24.50;53.50;;;;;;5021196;28;20042;-72